createdAt,value
2023-11-23T00:00:37.526Z,9.55
2023-11-23T00:01:41.447Z,10.07
2023-11-23T00:02:47.991Z,13.77
2023-11-23T00:03:52.011Z,12.57
2023-11-23T00:04:58.434Z,8.70
2023-11-23T00:06:03.215Z,10.15
2023-11-23T00:07:09.804Z,9.80
2023-11-23T00:08:16.199Z,12.13
2023-11-23T00:09:22.634Z,8.70
2023-11-23T00:10:26.431Z,11.32
2023-11-23T00:11:35.087Z,9.00
2023-11-23T00:12:42.489Z,11.32
2023-11-23T00:13:50.867Z,11.48
2023-11-23T00:14:58.034Z,8.93
2023-11-23T00:16:04.528Z,11.88
2023-11-23T00:17:10.993Z,10.10
2023-11-23T00:18:17.720Z,9.15
2023-11-23T00:19:21.646Z,9.50
2023-11-23T00:20:28.117Z,10.13
2023-11-23T00:21:34.477Z,11.52
2023-11-23T00:22:43.217Z,8.15
2023-11-23T00:23:47.107Z,11.02
2023-11-23T00:24:57.604Z,9.23
2023-11-23T00:26:04.616Z,11.27
2023-11-23T00:27:11.117Z,10.45
2023-11-23T00:28:19.920Z,9.35
2023-11-23T00:29:29.204Z,10.23
2023-11-23T00:30:35.301Z,9.15
2023-11-23T00:31:39.261Z,8.77
2023-11-23T00:32:45.804Z,8.20
2023-11-23T00:33:52.863Z,7.72
2023-11-23T00:35:01.474Z,8.60
2023-11-23T00:36:06.598Z,9.05
2023-11-23T00:37:13.133Z,7.25
2023-11-23T00:38:20.280Z,8.63
2023-11-23T00:39:30.059Z,11.60
2023-11-23T00:40:36.167Z,10.15
2023-11-23T00:41:40.057Z,8.32
2023-11-23T00:42:48.769Z,7.45
2023-11-23T00:43:55.321Z,9.60
2023-11-23T00:45:01.857Z,6.97
2023-11-23T00:46:06.658Z,7.97
2023-11-23T00:47:13.141Z,11.10
2023-11-23T00:48:17.220Z,11.77
2023-11-23T00:49:26.133Z,8.50
2023-11-23T00:50:33.352Z,10.88
2023-11-23T00:51:40.527Z,6.72
2023-11-23T00:52:44.418Z,7.55
2023-11-23T00:53:53.155Z,8.32
2023-11-23T00:54:58.389Z,7.90
2023-11-23T00:56:07.775Z,8.90
2023-11-23T00:57:12.649Z,9.40
2023-11-23T00:58:20.397Z,7.90
2023-11-23T00:59:25.949Z,7.70
2023-11-23T01:00:32.496Z,8.65
2023-11-23T01:01:36.587Z,7.32
2023-11-23T01:02:43.715Z,7.55
2023-11-23T01:03:47.779Z,9.43
2023-11-23T01:04:56.464Z,6.95
2023-11-23T01:06:03.028Z,8.38
2023-11-23T01:07:09.561Z,6.90
2023-11-23T01:08:15.936Z,7.22
2023-11-23T01:09:25.435Z,7.15
2023-11-23T01:10:29.314Z,8.20
2023-11-23T01:11:35.781Z,8.93
2023-11-23T01:12:39.685Z,6.88
2023-11-23T01:13:48.712Z,6.78
2023-11-23T01:14:58.418Z,6.82
2023-11-23T01:16:04.908Z,7.32
2023-11-23T01:17:11.016Z,7.53
2023-11-23T01:18:17.526Z,7.78
2023-11-23T01:19:23.791Z,6.03
2023-11-23T01:20:30.308Z,7.13
2023-11-23T01:21:36.687Z,7.68
2023-11-23T01:22:43.740Z,10.18
2023-11-23T01:23:47.595Z,7.45
2023-11-23T01:24:56.338Z,8.10
2023-11-23T01:26:02.558Z,6.50
2023-11-23T01:27:12.155Z,7.03
2023-11-23T01:28:16.233Z,5.93
2023-11-23T01:29:24.985Z,5.78
2023-11-23T01:30:31.442Z,6.68
2023-11-23T01:31:40.152Z,7.00
2023-11-23T01:32:46.433Z,8.30
2023-11-23T01:33:53.135Z,8.23
2023-11-23T01:34:57.158Z,6.80
2023-11-23T01:36:03.655Z,6.22
2023-11-23T01:37:07.642Z,6.22
2023-11-23T01:38:14.139Z,6.85
2023-11-23T01:39:18.793Z,7.40
2023-11-23T01:40:25.276Z,6.30
2023-11-23T01:41:29.183Z,6.07
2023-11-23T01:42:36.464Z,8.88
2023-11-23T01:43:46.630Z,7.45
2023-11-23T01:44:53.184Z,7.15
2023-11-23T01:45:59.889Z,5.93
2023-11-23T01:47:07.863Z,6.28
2023-11-23T01:48:12.426Z,8.43
2023-11-23T01:49:22.290Z,6.80
2023-11-23T01:50:27.165Z,5.95
2023-11-23T01:51:35.051Z,5.80
2023-11-23T01:52:39.173Z,8.00
2023-11-23T01:53:48.410Z,8.93
2023-11-23T01:54:54.555Z,8.88
2023-11-23T01:56:04.693Z,6.28
2023-11-23T01:57:09.966Z,6.50
2023-11-23T01:58:21.780Z,7.25
2023-11-23T01:59:29.599Z,7.95
2023-11-23T02:00:38.158Z,5.50
2023-11-23T02:01:45.296Z,5.75
2023-11-23T02:02:52.408Z,5.63
2023-11-23T02:03:59.750Z,5.97
2023-11-23T02:05:09.697Z,5.93
2023-11-23T02:06:13.866Z,5.57
2023-11-23T02:07:22.864Z,6.10
2023-11-23T02:08:27.580Z,6.97
2023-11-23T02:09:34.681Z,7.07
2023-11-23T02:10:41.381Z,6.07
2023-11-23T02:11:50.766Z,7.40
2023-11-23T02:12:57.285Z,8.95
2023-11-23T02:14:04.791Z,6.20
2023-11-23T02:15:11.630Z,6.45
2023-11-23T02:16:21.239Z,5.28
2023-11-23T02:17:32.020Z,5.97
2023-11-23T02:18:41.810Z,6.05
2023-11-23T02:19:47.183Z,7.65
2023-11-23T02:20:53.707Z,5.55
2023-11-23T02:21:57.672Z,4.95
2023-11-23T02:23:06.859Z,7.55
2023-11-23T02:24:14.030Z,7.10
2023-11-23T02:25:22.707Z,5.05
2023-11-23T02:26:26.575Z,8.10
2023-11-23T02:27:33.880Z,5.07
2023-11-23T02:28:42.586Z,6.95
2023-11-23T02:29:49.426Z,5.07
2023-11-23T02:30:55.901Z,6.05
2023-11-23T02:32:00.237Z,5.47
2023-11-23T02:33:13.512Z,5.32
2023-11-23T02:34:17.361Z,9.05
2023-11-23T02:35:24.338Z,6.45
2023-11-23T02:36:28.078Z,5.80
2023-11-23T02:37:33.787Z,6.40
2023-11-23T02:38:39.896Z,4.70
2023-11-23T02:39:49.703Z,4.85
2023-11-23T02:40:53.566Z,5.07
2023-11-23T02:41:58.529Z,5.18
2023-11-23T02:43:08.496Z,5.70
2023-11-23T02:44:15.381Z,4.90
2023-11-23T02:45:24.174Z,4.40
2023-11-23T02:46:30.494Z,5.05
2023-11-23T02:47:37.126Z,3.88
2023-11-23T02:48:41.204Z,4.20
2023-11-23T02:49:47.784Z,5.13
2023-11-23T02:50:52.094Z,5.22
2023-11-23T02:51:58.768Z,4.95
2023-11-23T02:53:05.229Z,4.40
2023-11-23T02:54:14.230Z,4.47
2023-11-23T02:55:21.209Z,4.32
2023-11-23T02:56:30.889Z,4.97
2023-11-23T02:57:37.162Z,3.88
2023-11-23T02:58:43.719Z,4.43
2023-11-23T02:59:47.609Z,4.55
2023-11-23T03:00:55.081Z,4.95
2023-11-23T03:02:01.491Z,5.38
2023-11-23T03:03:10.671Z,5.70
2023-11-23T03:04:17.198Z,4.22
2023-11-23T03:05:24.133Z,5.25
2023-11-23T03:06:31.564Z,4.07
2023-11-23T03:07:37.996Z,4.63
2023-11-23T03:08:42.273Z,5.63
2023-11-23T03:09:51.313Z,6.03
2023-11-23T03:11:00.888Z,4.20
2023-11-23T03:12:09.033Z,7.13
2023-11-23T03:13:12.656Z,5.78
2023-11-23T03:14:19.152Z,5.30
2023-11-23T03:15:23.223Z,4.40
2023-11-23T03:16:29.705Z,4.85
2023-11-23T03:17:35.831Z,5.93
2023-11-23T03:18:42.475Z,3.95
2023-11-23T03:19:46.437Z,3.88
2023-11-23T03:20:55.193Z,4.53
2023-11-23T03:22:01.601Z,4.82
2023-11-23T03:23:10.018Z,5.53
2023-11-23T03:24:16.208Z,4.35
2023-11-23T03:25:22.701Z,3.60
2023-11-23T03:26:29.165Z,3.47
2023-11-23T03:27:38.154Z,4.95
2023-11-23T03:28:42.050Z,4.13
2023-11-23T03:29:48.566Z,5.10
2023-11-23T03:30:52.741Z,7.20
2023-11-23T03:32:02.444Z,3.63
2023-11-23T03:33:06.414Z,3.40
2023-11-23T03:34:18.302Z,5.18
2023-11-23T03:35:22.200Z,4.60
2023-11-23T03:36:28.761Z,5.40
2023-11-23T03:37:34.989Z,6.15
2023-11-23T03:38:41.995Z,4.35
2023-11-23T03:39:46.737Z,3.58
2023-11-23T03:40:53.268Z,6.00
2023-11-23T03:41:59.765Z,5.68
2023-11-23T03:43:09.069Z,6.10
2023-11-23T03:44:13.443Z,6.80
2023-11-23T03:45:19.944Z,5.38
2023-11-23T03:46:23.931Z,4.85
2023-11-23T03:47:30.652Z,5.38
2023-11-23T03:48:36.841Z,5.85
2023-11-23T03:49:43.373Z,4.93
2023-11-23T03:50:50.272Z,6.97
2023-11-23T03:51:59.846Z,4.97
2023-11-23T03:53:06.178Z,5.40
2023-11-23T03:54:12.166Z,4.60
2023-11-23T03:55:16.407Z,4.38
2023-11-23T03:56:25.526Z,5.50
2023-11-23T03:57:32.016Z,4.43
2023-11-23T03:58:38.707Z,4.40
2023-11-23T03:59:42.631Z,4.30
2023-11-23T04:00:51.439Z,4.47
2023-11-23T04:01:58.255Z,5.93
2023-11-23T04:03:12.330Z,7.47
2023-11-23T04:04:16.670Z,4.25
2023-11-23T04:05:26.820Z,5.18
2023-11-23T04:06:30.845Z,4.82
2023-11-23T04:07:39.653Z,4.85
2023-11-23T04:08:46.188Z,5.10
2023-11-23T04:09:55.213Z,3.90
2023-11-23T04:11:01.304Z,4.63
2023-11-23T04:12:11.078Z,4.43
2023-11-23T04:13:17.732Z,4.28
2023-11-23T04:14:21.711Z,4.30
2023-11-23T04:15:28.348Z,6.30
2023-11-23T04:16:32.222Z,4.80
2023-11-23T04:17:41.075Z,3.75
2023-11-23T04:18:46.152Z,3.10
2023-11-23T04:19:52.761Z,4.05
2023-11-23T04:20:56.786Z,4.90
2023-11-23T04:22:08.070Z,3.90
2023-11-23T04:23:12.868Z,5.03
2023-11-23T04:24:21.996Z,3.35
2023-11-23T04:25:26.207Z,5.22
2023-11-23T04:26:33.048Z,3.00
2023-11-23T04:27:37.472Z,4.45
2023-11-23T04:28:46.987Z,3.58
2023-11-23T04:29:52.104Z,5.82
2023-11-23T04:31:01.210Z,8.48
2023-11-23T04:32:07.640Z,4.72
2023-11-23T04:33:14.142Z,4.45
2023-11-23T04:34:20.328Z,6.72
2023-11-23T04:35:26.963Z,4.40
2023-11-23T04:36:33.471Z,3.65
2023-11-23T04:37:39.138Z,5.90
2023-11-23T04:38:45.508Z,5.28
2023-11-23T04:39:48.881Z,6.50
2023-11-23T04:40:57.779Z,4.70
2023-11-23T04:42:01.674Z,4.22
2023-11-23T04:43:10.444Z,3.65
2023-11-23T04:44:19.630Z,5.93
2023-11-23T04:45:26.429Z,3.25
2023-11-23T04:46:39.245Z,5.30
2023-11-23T04:47:45.448Z,7.05
2023-11-23T04:48:52.163Z,5.85
2023-11-23T04:49:56.084Z,5.35
2023-11-23T04:51:02.598Z,4.90
2023-11-23T04:52:07.310Z,4.63
2023-11-23T04:53:16.012Z,4.38
2023-11-23T04:54:22.440Z,5.57
2023-11-23T04:55:29.315Z,7.90
2023-11-23T04:56:33.849Z,7.95
2023-11-23T04:57:40.316Z,5.63
2023-11-23T04:58:44.271Z,5.25
2023-11-23T04:59:54.323Z,6.15
2023-11-23T05:01:01.845Z,4.53
2023-11-23T05:02:12.108Z,4.55
2023-11-23T05:03:16.133Z,7.38
2023-11-23T05:04:22.745Z,4.47
2023-11-23T05:05:26.638Z,4.78
2023-11-23T05:06:33.225Z,5.78
2023-11-23T05:07:37.071Z,6.03
2023-11-23T05:08:47.394Z,3.90
2023-11-23T05:09:52.713Z,6.03
2023-11-23T05:11:02.567Z,5.50
2023-11-23T05:12:07.351Z,6.18
2023-11-23T05:13:14.074Z,10.75
2023-11-23T05:14:18.363Z,4.80
2023-11-23T05:15:28.888Z,5.63
2023-11-23T05:16:35.560Z,7.03
2023-11-23T05:17:39.715Z,5.63
2023-11-23T05:18:49.322Z,5.25
2023-11-23T05:19:55.389Z,5.38
2023-11-23T05:21:04.792Z,6.68
2023-11-23T05:22:08.726Z,5.35
2023-11-23T05:23:15.322Z,6.05
2023-11-23T05:24:21.561Z,5.55
2023-11-23T05:25:27.642Z,5.30
2023-11-23T05:26:31.000Z,7.20
2023-11-23T05:27:37.486Z,8.20
2023-11-23T05:28:43.629Z,8.07
2023-11-23T05:29:53.319Z,8.70
2023-11-23T05:30:59.958Z,4.53
2023-11-23T05:32:10.305Z,7.13
2023-11-23T05:33:14.390Z,9.77
2023-11-23T05:34:23.205Z,4.97
2023-11-23T05:35:27.156Z,6.10
2023-11-23T05:36:36.835Z,5.45
2023-11-23T05:37:42.994Z,4.72
2023-11-23T05:38:49.855Z,6.03
2023-11-23T05:39:55.878Z,7.18
2023-11-23T05:41:02.474Z,8.60
2023-11-23T05:42:10.739Z,5.00
2023-11-23T05:43:15.376Z,4.75
2023-11-23T05:44:24.098Z,5.93
2023-11-23T05:45:32.074Z,6.82
2023-11-23T05:46:41.653Z,8.07
2023-11-23T05:47:48.262Z,6.60
2023-11-23T05:48:54.729Z,6.35
2023-11-23T05:50:03.908Z,6.63
2023-11-23T05:51:08.006Z,10.20
2023-11-23T05:52:14.784Z,7.00
2023-11-23T05:53:18.636Z,5.75
2023-11-23T05:54:27.629Z,6.28
2023-11-23T05:55:33.841Z,5.07
2023-11-23T05:56:42.917Z,6.20
2023-11-23T05:57:49.769Z,6.85
2023-11-23T05:58:58.591Z,6.22
2023-11-23T06:00:07.409Z,7.43
2023-11-23T06:01:13.887Z,10.60
2023-11-23T06:02:24.001Z,7.60
2023-11-23T06:03:32.774Z,9.52
2023-11-23T06:04:36.783Z,6.40
2023-11-23T06:05:43.475Z,5.75
2023-11-23T06:06:47.465Z,8.43
2023-11-23T06:07:54.702Z,7.53
2023-11-23T06:08:58.721Z,9.18
2023-11-23T06:10:06.471Z,9.75
2023-11-23T06:11:10.309Z,8.38
2023-11-23T06:12:17.001Z,11.38
2023-11-23T06:13:20.900Z,8.30
2023-11-23T06:14:29.687Z,8.10
2023-11-23T06:15:33.836Z,8.68
2023-11-23T06:16:42.929Z,6.90
2023-11-23T06:18:04.394Z,8.95
2023-11-23T06:19:17.676Z,11.55
2023-11-23T06:20:22.096Z,9.13
2023-11-23T06:21:30.295Z,8.60
2023-11-23T06:22:34.170Z,8.68
2023-11-23T06:23:43.584Z,7.40
2023-11-23T06:24:47.535Z,9.25
2023-11-23T06:25:53.433Z,7.25
2023-11-23T06:26:59.616Z,9.55
2023-11-23T06:29:13.011Z,8.80
2023-11-23T06:30:19.263Z,8.85
2023-11-23T06:31:25.899Z,8.35
2023-11-23T06:32:29.747Z,9.35
2023-11-23T06:33:38.928Z,10.13
2023-11-23T06:34:45.186Z,12.15
2023-11-23T06:35:51.753Z,9.48
2023-11-23T06:36:55.719Z,10.30
2023-11-23T06:38:02.199Z,12.98
2023-11-23T06:39:06.320Z,9.30
2023-11-23T06:40:14.434Z,8.10
2023-11-23T06:41:20.157Z,9.68
2023-11-23T06:42:26.769Z,9.13
2023-11-23T06:43:30.872Z,8.85
2023-11-23T06:44:37.470Z,10.93
2023-11-23T06:45:43.897Z,8.73
2023-11-23T06:46:50.614Z,9.93
2023-11-23T06:47:59.262Z,7.90
2023-11-23T06:49:08.473Z,10.38
2023-11-23T06:50:22.021Z,8.38
2023-11-23T06:51:28.555Z,8.73
2023-11-23T06:52:32.461Z,6.75
2023-11-23T06:53:45.038Z,9.32
2023-11-23T06:54:51.892Z,10.45
2023-11-23T06:56:03.660Z,8.05
2023-11-23T06:57:09.370Z,9.88
2023-11-23T06:58:18.059Z,8.15
2023-11-23T06:59:22.587Z,10.00
2023-11-23T07:00:29.121Z,7.35
2023-11-23T07:01:33.976Z,8.38
2023-11-23T07:02:40.552Z,6.97
2023-11-23T07:03:45.758Z,8.88
2023-11-23T07:05:59.936Z,7.70
2023-11-23T07:07:08.106Z,8.35
2023-11-23T07:08:12.117Z,8.85
2023-11-23T07:09:19.112Z,8.68
2023-11-23T07:10:23.827Z,7.85
2023-11-23T07:11:32.973Z,8.98
2023-11-23T07:12:36.955Z,9.02
2023-11-23T07:13:43.480Z,7.72
2023-11-23T07:14:47.590Z,9.20
2023-11-23T07:15:56.697Z,7.38
2023-11-23T07:17:00.544Z,7.57
2023-11-23T07:18:07.358Z,8.95
2023-11-23T07:19:11.981Z,9.95
2023-11-23T07:20:23.691Z,8.27
2023-11-23T07:21:30.006Z,9.07
2023-11-23T07:22:38.380Z,11.00
2023-11-23T07:23:42.556Z,9.65
2023-11-23T07:24:49.653Z,8.77
2023-11-23T07:25:54.221Z,7.80
2023-11-23T07:27:00.782Z,7.95
2023-11-23T07:28:05.632Z,11.18
2023-11-23T07:29:12.125Z,9.73
2023-11-23T07:30:17.242Z,8.75
2023-11-23T07:31:23.846Z,12.48
2023-11-23T07:32:30.339Z,8.65
2023-11-23T07:33:38.455Z,9.27
2023-11-23T07:34:45.240Z,8.95
2023-11-23T07:35:54.462Z,10.82
2023-11-23T07:37:00.307Z,9.25
2023-11-23T07:38:07.075Z,11.35
2023-11-23T07:39:12.172Z,7.93
2023-11-23T07:40:19.157Z,10.13
2023-11-23T07:41:25.400Z,9.18
2023-11-23T07:42:31.981Z,9.85
2023-11-23T07:43:36.041Z,7.05
2023-11-23T07:44:44.994Z,9.98
2023-11-23T07:45:51.862Z,7.28
2023-11-23T07:46:58.513Z,7.72
2023-11-23T07:48:10.510Z,8.73
2023-11-23T07:49:18.084Z,10.18
2023-11-23T07:50:21.121Z,11.05
2023-11-23T07:51:30.301Z,10.10
2023-11-23T07:52:34.235Z,8.48
2023-11-23T07:53:40.702Z,7.22
2023-11-23T07:54:45.376Z,9.35
2023-11-23T07:55:49.942Z,10.43
2023-11-23T07:56:56.426Z,7.95
2023-11-23T07:58:01.204Z,8.52
2023-11-23T07:59:07.790Z,7.72
2023-11-23T08:00:14.899Z,9.73
2023-11-23T08:01:21.596Z,8.88
2023-11-23T08:02:25.603Z,6.93
2023-11-23T08:03:33.601Z,10.57
2023-11-23T08:04:39.876Z,9.05
2023-11-23T08:05:47.331Z,7.63
2023-11-23T08:06:53.881Z,7.50
2023-11-23T08:08:02.639Z,9.10
2023-11-23T08:09:11.527Z,7.53
2023-11-23T08:10:18.162Z,9.57
2023-11-23T08:11:25.122Z,7.47
2023-11-23T08:12:33.456Z,10.32
2023-11-23T08:13:37.704Z,10.38
2023-11-23T08:14:46.015Z,10.07
2023-11-23T08:15:52.871Z,7.03
2023-11-23T08:17:03.800Z,9.35
2023-11-23T08:18:10.555Z,12.15
2023-11-23T08:19:19.563Z,8.20
2023-11-23T08:20:27.935Z,9.70
2023-11-23T08:21:37.599Z,11.00
2023-11-23T08:22:47.390Z,10.05
2023-11-23T08:23:53.953Z,8.45
2023-11-23T08:25:00.324Z,7.68
2023-11-23T08:26:07.493Z,9.90
2023-11-23T08:27:13.878Z,9.52
2023-11-23T08:28:22.450Z,7.88
2023-11-23T08:29:26.360Z,8.98
2023-11-23T08:30:35.426Z,7.28
2023-11-23T08:31:48.282Z,9.52
2023-11-23T08:32:54.834Z,10.88
2023-11-23T08:33:58.969Z,9.93
2023-11-23T08:35:10.187Z,10.80
2023-11-23T08:36:16.541Z,10.93
2023-11-23T08:37:23.105Z,8.82
2023-11-23T08:38:30.503Z,9.45
2023-11-23T08:39:37.076Z,10.10
2023-11-23T08:40:41.192Z,8.45
2023-11-23T08:41:48.358Z,13.02
2023-11-23T08:42:52.237Z,6.97
2023-11-23T08:44:05.409Z,5.55
2023-11-23T08:45:12.575Z,8.32
2023-11-23T08:46:21.374Z,9.88
2023-11-23T08:47:25.478Z,7.40
2023-11-23T08:48:34.461Z,6.50
2023-11-23T08:49:38.409Z,10.93
2023-11-23T08:50:47.957Z,6.80
2023-11-23T08:51:50.946Z,7.03
2023-11-23T08:53:01.879Z,8.88
2023-11-23T08:54:09.613Z,6.28
2023-11-23T08:55:16.313Z,10.43
2023-11-23T08:56:20.232Z,9.20
2023-11-23T08:57:26.769Z,8.85
2023-11-23T08:58:32.902Z,7.03
2023-11-23T08:59:39.445Z,8.80
2023-11-23T09:00:42.929Z,10.07
2023-11-23T09:01:57.159Z,8.27
2023-11-23T09:03:06.345Z,8.23
2023-11-23T09:04:15.270Z,8.13
2023-11-23T09:05:22.803Z,10.65
2023-11-23T09:06:31.791Z,7.28
2023-11-23T09:07:40.426Z,8.23
2023-11-23T09:08:47.070Z,10.02
2023-11-23T09:09:53.569Z,8.15
2023-11-23T09:11:02.506Z,9.43
2023-11-23T09:12:08.470Z,10.43
2023-11-23T09:13:16.491Z,9.82
2023-11-23T09:14:22.314Z,7.90
2023-11-23T09:15:35.168Z,9.93
2023-11-23T09:16:42.766Z,9.25
2023-11-23T09:17:52.580Z,8.75
2023-11-23T09:18:58.854Z,9.00
2023-11-23T09:20:09.744Z,10.18
2023-11-23T09:21:14.100Z,12.13
2023-11-23T09:22:20.632Z,18.83
2023-11-23T09:23:24.758Z,9.65
2023-11-23T09:24:31.952Z,8.68
2023-11-23T09:25:39.828Z,7.57
2023-11-23T09:26:47.859Z,8.65
2023-11-23T09:27:51.797Z,8.45
2023-11-23T09:28:59.016Z,12.20
2023-11-23T09:30:04.807Z,9.93
2023-11-23T09:31:14.527Z,8.02
2023-11-23T09:32:20.594Z,7.95
2023-11-23T09:33:28.033Z,10.27
2023-11-23T09:34:34.232Z,7.60
2023-11-23T09:35:43.495Z,9.18
2023-11-23T09:36:49.459Z,9.65
2023-11-23T09:37:58.933Z,11.25
2023-11-23T09:39:02.983Z,10.77
2023-11-23T09:40:20.461Z,9.82
2023-11-23T09:41:36.071Z,10.45
2023-11-23T09:42:42.885Z,12.13
2023-11-23T09:43:48.902Z,9.45
2023-11-23T09:45:01.824Z,9.32
2023-11-23T09:46:09.196Z,11.85
2023-11-23T09:47:20.494Z,11.77
2023-11-23T09:48:29.712Z,10.48
2023-11-23T09:49:38.445Z,10.13
2023-11-23T09:50:42.887Z,9.05
2023-11-23T09:51:56.836Z,10.48
2023-11-23T09:53:05.597Z,8.88
2023-11-23T09:54:22.458Z,7.60
2023-11-23T09:55:29.126Z,8.07
2023-11-23T09:56:40.744Z,8.90
2023-11-23T09:57:49.435Z,7.07
2023-11-23T09:58:53.515Z,6.78
2023-11-23T10:00:07.085Z,8.55
2023-11-23T10:01:13.442Z,12.77
2023-11-23T10:02:26.246Z,11.35
2023-11-23T10:03:33.724Z,10.35
2023-11-23T10:04:40.290Z,8.65
2023-11-23T10:05:45.178Z,9.77
2023-11-23T10:06:51.638Z,8.80
2023-11-23T10:07:55.957Z,7.45
2023-11-23T10:09:02.851Z,8.10
2023-11-23T10:10:09.065Z,10.30
2023-11-23T10:11:18.267Z,8.02
2023-11-23T10:12:29.159Z,9.73
2023-11-23T10:13:35.487Z,16.30
2023-11-23T10:14:40.922Z,18.55
2023-11-23T10:15:48.543Z,10.02
2023-11-23T10:16:52.681Z,9.68
2023-11-23T10:18:02.556Z,11.20
2023-11-23T10:19:09.961Z,10.43
2023-11-23T10:20:19.025Z,9.90
2023-11-23T10:21:23.097Z,9.32
2023-11-23T10:22:27.281Z,8.25
2023-11-23T10:23:33.140Z,8.48
2023-11-23T10:24:48.261Z,8.02
2023-11-23T10:25:57.674Z,7.03
2023-11-23T10:27:06.636Z,10.85
2023-11-23T10:28:19.449Z,12.52
2023-11-23T10:29:29.884Z,9.63
2023-11-23T10:30:39.365Z,8.73
2023-11-23T10:31:43.368Z,8.20
2023-11-23T10:32:52.915Z,10.85
2023-11-23T10:33:56.968Z,7.80
2023-11-23T10:35:12.566Z,9.65
2023-11-23T10:36:18.263Z,9.50
2023-11-23T10:37:29.224Z,7.70
2023-11-23T10:39:53.512Z,7.60
2023-11-23T10:41:01.510Z,34.00
2023-11-23T10:42:09.716Z,13.55
2023-11-23T10:43:19.368Z,9.07
2023-11-23T10:44:27.918Z,8.65
2023-11-23T10:45:34.830Z,6.97
2023-11-23T10:46:45.653Z,6.72
2023-11-23T10:47:55.708Z,7.88
2023-11-23T10:49:03.394Z,8.93
2023-11-23T10:50:11.322Z,11.55
2023-11-23T10:51:21.550Z,8.63
2023-11-23T10:52:29.632Z,10.57
2023-11-23T10:54:51.180Z,9.77
2023-11-23T10:55:58.729Z,9.10
2023-11-23T10:57:10.719Z,8.25
2023-11-23T10:58:25.223Z,7.85
2023-11-23T10:59:31.127Z,8.48
2023-11-23T11:00:44.118Z,8.63
2023-11-23T11:01:51.751Z,9.65
2023-11-23T11:03:08.028Z,9.93
2023-11-23T11:04:16.587Z,10.70
2023-11-23T11:05:32.325Z,10.25
2023-11-23T11:06:40.333Z,9.05
2023-11-23T11:08:01.580Z,9.68
2023-11-23T11:09:15.660Z,9.70
2023-11-23T11:11:28.854Z,9.07
2023-11-23T11:12:42.127Z,9.25
2023-11-23T11:13:49.542Z,10.80
2023-11-23T11:14:56.191Z,10.77
2023-11-23T11:16:05.062Z,10.00
2023-11-23T11:17:13.912Z,12.75
2023-11-23T11:18:22.981Z,11.07
2023-11-23T11:19:29.568Z,11.43
2023-11-23T11:20:33.277Z,10.02
2023-11-23T11:21:49.115Z,8.55
2023-11-23T11:22:57.153Z,11.45
2023-11-23T11:24:03.663Z,10.52
2023-11-23T11:25:09.148Z,8.18
2023-11-23T11:26:22.180Z,10.57
2023-11-23T11:27:30.332Z,8.48
2023-11-23T11:28:34.774Z,12.77
2023-11-23T11:29:53.579Z,7.07
2023-11-23T11:31:06.341Z,8.43
2023-11-23T11:32:15.550Z,9.98
2023-11-23T11:33:25.351Z,8.23
2023-11-23T11:34:38.026Z,11.60
2023-11-23T11:35:46.554Z,10.82
2023-11-23T11:37:01.333Z,10.00
2023-11-23T11:38:14.656Z,9.07
2023-11-23T11:39:23.914Z,9.55
2023-11-23T11:40:39.306Z,7.93
2023-11-23T11:41:49.865Z,10.25
2023-11-23T11:42:57.367Z,7.97
2023-11-23T11:44:05.784Z,11.98
2023-11-23T11:45:16.255Z,7.40
2023-11-23T11:46:23.536Z,9.55
2023-11-23T11:47:29.980Z,8.45
2023-11-23T11:48:37.432Z,7.35
2023-11-23T11:49:40.729Z,7.05
2023-11-23T11:50:47.277Z,7.75
2023-11-23T11:51:51.758Z,8.05
2023-11-23T11:53:00.491Z,7.85
2023-11-23T11:54:08.432Z,8.10
2023-11-23T11:55:15.350Z,6.25
2023-11-23T11:56:23.412Z,9.10
2023-11-23T11:57:29.901Z,8.52
2023-11-23T11:58:36.387Z,8.25
2023-11-23T11:59:45.339Z,9.45
2023-11-23T12:00:54.638Z,7.57
2023-11-23T12:01:58.982Z,8.32
2023-11-23T12:03:05.951Z,7.28
2023-11-23T12:04:10.028Z,7.97
2023-11-23T12:05:16.933Z,7.65
2023-11-23T12:06:24.227Z,8.57
2023-11-23T12:07:30.730Z,9.57
2023-11-23T12:08:37.898Z,7.13
2023-11-23T12:09:47.073Z,7.55
2023-11-23T12:10:51.353Z,7.35
2023-11-23T12:12:11.992Z,8.75
2023-11-23T12:13:24.846Z,12.73
2023-11-23T12:14:36.815Z,8.65
2023-11-23T12:15:41.866Z,7.72
2023-11-23T12:16:51.573Z,8.52
2023-11-23T12:17:59.504Z,8.90
2023-11-23T12:19:20.891Z,8.40
2023-11-23T12:20:37.474Z,7.22
2023-11-23T12:21:44.079Z,7.65
2023-11-23T12:22:47.797Z,7.35
2023-11-23T12:23:56.230Z,6.93
2023-11-23T12:25:07.071Z,6.43
2023-11-23T12:26:17.135Z,7.88
2023-11-23T12:27:22.236Z,7.07
2023-11-23T12:28:31.495Z,9.20
2023-11-23T12:29:40.731Z,7.65
2023-11-23T12:30:48.099Z,6.10
2023-11-23T12:31:54.686Z,8.57
2023-11-23T12:33:01.344Z,6.47
2023-11-23T12:34:09.243Z,7.35
2023-11-23T12:35:15.805Z,6.53
2023-11-23T12:36:20.434Z,6.28
2023-11-23T12:37:31.116Z,7.95
2023-11-23T12:38:35.001Z,6.13
2023-11-23T12:39:44.676Z,6.28
2023-11-23T12:40:50.965Z,7.18
2023-11-23T12:42:01.123Z,7.18
2023-11-23T12:43:07.614Z,5.43
2023-11-23T12:44:14.386Z,5.35
2023-11-23T12:45:20.650Z,6.05
2023-11-23T12:46:27.220Z,6.43
2023-11-23T12:47:36.866Z,7.20
2023-11-23T12:48:46.618Z,5.93
2023-11-23T12:49:50.886Z,6.10
2023-11-23T12:51:00.287Z,6.90
2023-11-23T12:53:46.750Z,6.25
2023-11-23T12:55:08.582Z,5.95
2023-11-23T12:56:14.384Z,5.65
2023-11-23T12:57:18.457Z,6.07
2023-11-23T12:58:27.682Z,6.85
2023-11-23T12:59:32.143Z,5.43
2023-11-23T13:00:40.357Z,5.85
2023-11-23T13:01:44.289Z,4.82
2023-11-23T13:02:55.753Z,5.20
2023-11-23T13:04:09.668Z,4.97
2023-11-23T13:05:19.220Z,5.68
2023-11-23T13:06:27.285Z,4.50
2023-11-23T13:07:33.810Z,7.22
2023-11-23T13:08:37.716Z,6.18
2023-11-23T13:09:49.897Z,6.20
2023-11-23T13:10:53.749Z,7.47
2023-11-23T13:12:05.316Z,4.00
2023-11-23T13:13:10.124Z,4.45
2023-11-23T13:14:21.714Z,4.35
2023-11-23T13:15:28.385Z,4.85
2023-11-23T13:16:35.985Z,4.57
2023-11-23T13:17:45.379Z,5.15
2023-11-23T13:19:11.240Z,3.75
2023-11-23T13:20:25.468Z,3.92
2023-11-23T13:21:32.176Z,5.10
2023-11-23T13:22:36.633Z,5.65
2023-11-23T13:23:49.785Z,3.63
2023-11-23T13:24:59.334Z,4.72
2023-11-23T13:26:09.034Z,5.50
2023-11-23T13:27:15.684Z,5.13
2023-11-23T13:28:25.830Z,4.00
2023-11-23T13:29:29.712Z,4.85
2023-11-23T13:30:36.208Z,5.22
2023-11-23T13:31:40.234Z,6.25
2023-11-23T13:32:47.518Z,6.15
2023-11-23T13:33:54.264Z,3.65
2023-11-23T13:35:00.381Z,5.57
2023-11-23T13:36:08.903Z,7.75
2023-11-23T13:37:13.255Z,4.55
2023-11-23T13:38:17.183Z,4.97
2023-11-23T13:39:23.748Z,5.72
2023-11-23T13:40:28.660Z,4.28
2023-11-23T13:41:35.208Z,7.32
2023-11-23T13:42:42.573Z,8.13
2023-11-23T13:43:51.709Z,5.32
2023-11-23T13:44:56.222Z,5.13
2023-11-23T13:46:02.749Z,5.50
2023-11-23T13:47:10.186Z,6.68
2023-11-23T13:48:17.607Z,5.28
2023-11-23T13:49:26.290Z,5.55
2023-11-23T13:50:35.828Z,5.47
2023-11-23T13:51:40.196Z,6.05
2023-11-23T13:52:50.244Z,4.80
2023-11-23T13:53:54.256Z,4.47
2023-11-23T13:55:00.703Z,5.60
2023-11-23T13:56:05.214Z,6.13
2023-11-23T13:57:14.208Z,6.15
2023-11-23T13:58:19.429Z,4.82
2023-11-23T13:59:26.070Z,5.13
2023-11-23T14:00:29.535Z,9.57
2023-11-23T14:01:36.190Z,4.80
2023-11-23T14:02:41.034Z,6.50
2023-11-23T14:03:47.801Z,6.90
2023-11-23T14:04:54.389Z,4.75
2023-11-23T14:06:03.011Z,6.82
2023-11-23T14:07:09.136Z,5.32
2023-11-23T14:08:19.310Z,6.20
2023-11-23T14:09:23.309Z,5.75
2023-11-23T14:10:30.530Z,6.40
2023-11-23T14:11:36.724Z,7.40
2023-11-23T14:12:42.748Z,6.70
2023-11-23T14:13:50.381Z,7.25
2023-11-23T14:14:57.188Z,5.53
2023-11-23T14:16:01.345Z,5.68
2023-11-23T14:17:14.014Z,4.90
2023-11-23T14:18:19.151Z,5.72
2023-11-23T14:19:28.047Z,4.82
2023-11-23T14:20:33.830Z,4.53
2023-11-23T14:21:41.065Z,5.60
2023-11-23T14:22:46.121Z,5.15
2023-11-23T14:23:52.743Z,5.05
2023-11-23T14:24:56.689Z,5.57
2023-11-23T14:26:05.705Z,7.00
2023-11-23T14:27:11.204Z,7.28
2023-11-23T14:28:21.768Z,8.10
2023-11-23T14:29:25.677Z,7.25
2023-11-23T14:30:32.605Z,6.38
2023-11-23T14:31:39.092Z,5.55
2023-11-23T14:32:50.290Z,5.00
2023-11-23T14:33:56.365Z,5.80
2023-11-23T14:35:05.251Z,5.53
2023-11-23T14:36:15.904Z,5.50
2023-11-23T14:37:23.355Z,5.82
2023-11-23T14:38:27.812Z,6.70
2023-11-23T14:39:38.132Z,4.72
2023-11-23T14:40:42.593Z,5.63
2023-11-23T14:41:49.061Z,5.88
2023-11-23T14:42:57.300Z,5.25
2023-11-23T14:44:04.762Z,7.28
2023-11-23T14:45:09.926Z,6.18
2023-11-23T14:46:18.785Z,6.28
2023-11-23T14:47:28.275Z,8.65
2023-11-23T14:48:37.203Z,6.05
2023-11-23T14:49:43.591Z,6.47
2023-11-23T14:50:53.214Z,9.90
2023-11-23T14:52:02.197Z,6.93
2023-11-23T14:53:08.820Z,11.80
2023-11-23T14:54:14.529Z,7.10
2023-11-23T14:55:22.646Z,9.10
2023-11-23T14:56:32.438Z,9.57
2023-11-23T14:57:41.792Z,7.57
2023-11-23T14:58:46.696Z,7.28
2023-11-23T14:59:55.471Z,10.93